createdAt,value
2023-05-05T00:01:01.113Z,12.30
2023-05-05T00:03:29.906Z,12.30
2023-05-05T00:05:58.133Z,12.20
2023-05-05T00:08:25.792Z,12.30
2023-05-05T00:10:53.754Z,12.30
2023-05-05T00:13:21.510Z,12.30
2023-05-05T00:15:51.056Z,12.30
2023-05-05T00:18:19.310Z,12.30
2023-05-05T00:20:47.631Z,12.30
2023-05-05T00:23:16.473Z,12.40
2023-05-05T00:25:44.383Z,12.40
2023-05-05T00:28:14.073Z,12.40
2023-05-05T00:30:41.791Z,12.40
2023-05-05T00:33:11.082Z,12.40
2023-05-05T00:35:38.755Z,12.40
2023-05-05T00:38:07.115Z,12.40
2023-05-05T00:40:34.657Z,12.40
2023-05-05T00:43:02.977Z,12.40
2023-05-05T00:45:31.042Z,12.40
2023-05-05T00:48:00.508Z,12.40
2023-05-05T00:50:30.605Z,12.40
2023-05-05T00:53:02.693Z,12.40
2023-05-05T00:55:31.437Z,12.30
2023-05-05T00:57:59.857Z,12.30
2023-05-05T01:00:28.700Z,12.30
2023-05-05T01:02:57.051Z,12.30
2023-05-05T01:05:27.900Z,12.30
2023-05-05T01:08:37.531Z,12.30
2023-05-05T01:11:20.979Z,12.30
2023-05-05T01:14:01.037Z,12.30
2023-05-05T01:16:30.254Z,12.30
2023-05-05T01:19:14.978Z,12.30
2023-05-05T01:21:53.533Z,12.30
2023-05-05T01:24:30.252Z,12.30
2023-05-05T01:27:13.815Z,12.30
2023-05-05T01:29:41.579Z,12.30
2023-05-05T01:32:15.672Z,12.30
2023-05-05T01:35:02.797Z,12.30
2023-05-05T01:38:00.486Z,12.30
2023-05-05T01:40:31.319Z,12.30
2023-05-05T01:43:01.742Z,12.30
2023-05-05T01:45:33.550Z,12.30
2023-05-05T01:48:02.755Z,12.30
2023-05-05T01:50:32.079Z,12.30
2023-05-05T01:53:01.489Z,12.20
2023-05-05T01:55:31.038Z,12.20
2023-05-05T01:58:01.233Z,12.20
2023-05-05T02:00:30.473Z,12.20
2023-05-05T02:02:59.941Z,12.20
2023-05-05T02:05:28.120Z,12.20
2023-05-05T02:07:59.045Z,12.10
2023-05-05T02:10:28.613Z,12.10
2023-05-05T02:12:59.006Z,12.10
2023-05-05T02:15:29.027Z,12.10
2023-05-05T02:17:57.496Z,12.10
2023-05-05T02:20:25.840Z,12.00
2023-05-05T02:22:54.198Z,12.10
2023-05-05T02:25:27.078Z,12.00
2023-05-05T02:27:57.235Z,12.00
2023-05-05T02:30:26.925Z,12.00
2023-05-05T02:33:00.278Z,12.00
2023-05-05T02:35:37.091Z,12.00
2023-05-05T02:38:14.754Z,12.00
2023-05-05T02:40:44.355Z,11.90
2023-05-05T02:43:18.175Z,11.90
2023-05-05T02:45:47.513Z,11.90
2023-05-05T02:48:16.497Z,11.90
2023-05-05T02:50:44.074Z,12.00
2023-05-05T02:53:26.933Z,11.90
2023-05-05T02:56:02.224Z,11.90
2023-05-05T02:58:37.681Z,11.90
2023-05-05T03:01:35.471Z,11.90
2023-05-05T03:04:17.697Z,12.00
2023-05-05T03:06:54.481Z,12.00
2023-05-05T03:09:38.090Z,12.00
2023-05-05T03:12:12.562Z,11.90
2023-05-05T03:15:02.389Z,12.00
2023-05-05T03:17:33.116Z,12.00
2023-05-05T03:20:03.850Z,12.00
2023-05-05T03:22:37.842Z,12.00
2023-05-05T03:25:08.982Z,12.00
2023-05-05T03:27:37.894Z,12.00
2023-05-05T03:30:07.414Z,12.00
2023-05-05T03:32:38.890Z,12.00
2023-05-05T03:35:10.086Z,12.00
2023-05-05T03:37:38.176Z,11.90
2023-05-05T03:40:09.524Z,12.00
2023-05-05T03:42:37.624Z,12.00
2023-05-05T03:45:09.175Z,11.90
2023-05-05T03:47:37.583Z,11.90
2023-05-05T03:50:09.455Z,12.00
2023-05-05T03:52:37.585Z,11.90
2023-05-05T03:55:06.974Z,11.90
2023-05-05T03:57:34.617Z,11.90
2023-05-05T04:00:02.415Z,12.00
2023-05-05T04:02:32.585Z,12.00
2023-05-05T04:05:01.211Z,12.00
2023-05-05T04:07:28.755Z,12.00
2023-05-05T04:09:56.332Z,12.00
2023-05-05T04:12:24.518Z,12.00
2023-05-05T04:14:52.235Z,12.00
2023-05-05T04:17:20.069Z,12.00
2023-05-05T04:19:47.705Z,12.00
2023-05-05T04:22:15.818Z,12.00
2023-05-05T04:24:43.398Z,12.00
2023-05-05T04:27:10.975Z,12.00
2023-05-05T04:29:38.757Z,12.00
2023-05-05T04:32:06.986Z,12.10
2023-05-05T04:34:34.560Z,12.00
2023-05-05T04:37:02.507Z,12.00
2023-05-05T04:39:31.435Z,12.00
2023-05-05T04:41:59.497Z,12.00
2023-05-05T04:44:27.118Z,12.00
2023-05-05T04:46:55.023Z,12.00
2023-05-05T04:51:50.809Z,12.00
2023-05-05T04:54:18.390Z,12.00
2023-05-05T04:56:46.031Z,12.00
2023-05-05T04:59:14.759Z,12.00
2023-05-05T05:01:42.977Z,12.00
2023-05-05T05:04:11.442Z,11.90
2023-05-05T05:06:39.176Z,11.90
2023-05-05T05:09:06.724Z,11.90
2023-05-05T05:11:34.643Z,12.00
2023-05-05T05:14:02.287Z,12.00
2023-05-05T05:19:01.404Z,11.90
2023-05-05T05:21:30.035Z,11.90
2023-05-05T05:23:57.692Z,11.90
2023-05-05T05:26:27.160Z,12.00
2023-05-05T05:28:54.742Z,12.00
2023-05-05T05:31:22.393Z,12.00
2023-05-05T05:33:51.056Z,12.00
2023-05-05T05:36:19.427Z,12.00
2023-05-05T05:38:47.164Z,12.10
2023-05-05T05:41:17.721Z,12.10
2023-05-05T05:43:49.027Z,12.10
2023-05-05T05:46:17.079Z,12.20
2023-05-05T05:48:45.317Z,12.20
2023-05-05T05:51:12.948Z,12.10
2023-05-05T05:53:41.074Z,12.20
2023-05-05T05:56:09.948Z,12.20
2023-05-05T05:58:37.969Z,12.30
2023-05-05T06:01:05.708Z,12.30
2023-05-05T06:03:39.103Z,12.20
2023-05-05T06:06:07.608Z,12.20
2023-05-05T06:08:43.072Z,12.30
2023-05-05T06:11:10.799Z,12.30
2023-05-05T06:13:38.491Z,12.30
2023-05-05T06:16:07.641Z,12.20
2023-05-05T06:18:35.545Z,12.30
2023-05-05T06:21:03.686Z,12.30
2023-05-05T06:23:32.364Z,12.40
2023-05-05T06:26:11.978Z,12.40
2023-05-05T06:28:39.601Z,12.50
2023-05-05T06:33:35.009Z,12.60
2023-05-05T06:36:03.321Z,12.60
2023-05-05T06:38:30.965Z,12.70
2023-05-05T06:40:58.717Z,12.60
2023-05-05T06:43:26.239Z,12.80
2023-05-05T06:45:58.917Z,12.80
2023-05-05T06:48:26.531Z,12.80
2023-05-05T06:50:54.023Z,12.80
2023-05-05T06:53:21.681Z,12.80
2023-05-05T06:55:49.261Z,12.90
2023-05-05T06:58:16.814Z,13.00
2023-05-05T07:00:44.518Z,12.90
2023-05-05T07:03:12.503Z,13.10
2023-05-05T07:05:40.179Z,13.10
2023-05-05T07:08:09.056Z,13.10
2023-05-05T07:10:37.120Z,13.10
2023-05-05T07:13:05.097Z,13.10
2023-05-05T07:15:32.940Z,13.30
2023-05-05T07:18:01.047Z,13.30
2023-05-05T07:20:28.817Z,13.40
2023-05-05T07:22:59.485Z,13.30
2023-05-05T07:25:27.166Z,13.60
2023-05-05T07:27:54.792Z,13.40
2023-05-05T07:30:23.150Z,13.40
2023-05-05T07:32:51.224Z,13.40
2023-05-05T07:35:19.045Z,13.40
2023-05-05T07:37:46.786Z,13.40
2023-05-05T07:40:14.508Z,13.40
2023-05-05T07:42:42.090Z,13.40
2023-05-05T07:45:09.975Z,13.40
2023-05-05T07:47:37.600Z,13.40
2023-05-05T07:50:06.036Z,13.50
2023-05-05T07:52:45.039Z,13.50
2023-05-05T07:55:17.398Z,13.60
2023-05-05T07:57:44.967Z,13.60
2023-05-05T08:00:13.622Z,13.70
2023-05-05T08:02:41.549Z,13.80
2023-05-05T08:05:09.808Z,13.90
2023-05-05T08:07:41.299Z,14.00
2023-05-05T08:10:11.389Z,14.10
2023-05-05T08:12:39.592Z,14.10
2023-05-05T08:15:08.031Z,14.10
2023-05-05T08:17:46.853Z,14.20
2023-05-05T08:20:15.781Z,14.20
2023-05-05T08:22:43.941Z,14.30
2023-05-05T08:25:12.969Z,14.40
2023-05-05T08:27:42.760Z,14.40
2023-05-05T08:30:11.098Z,14.60
2023-05-05T08:32:41.756Z,14.70
2023-05-05T08:35:10.800Z,14.80
2023-05-05T08:37:38.634Z,14.90
2023-05-05T08:40:07.014Z,14.90
2023-05-05T08:42:38.446Z,14.90
2023-05-05T08:45:10.852Z,14.80
2023-05-05T08:47:39.882Z,14.80
2023-05-05T08:50:11.028Z,14.90
2023-05-05T08:52:46.543Z,14.80
2023-05-05T08:55:26.834Z,14.70
2023-05-05T08:57:56.558Z,14.80
2023-05-05T09:00:26.570Z,14.80
2023-05-05T09:03:00.451Z,15.00
2023-05-05T09:05:28.258Z,15.00
2023-05-05T09:07:56.019Z,15.10
2023-05-05T09:10:26.004Z,15.20
2023-05-05T09:12:53.635Z,15.30
2023-05-05T09:17:49.591Z,15.30
2023-05-05T09:20:17.235Z,15.30
2023-05-05T09:22:46.979Z,15.40
2023-05-05T09:25:16.520Z,15.40
2023-05-05T09:27:46.454Z,15.50
2023-05-05T09:30:32.548Z,15.60
2023-05-05T09:33:02.292Z,15.60
2023-05-05T09:35:47.872Z,15.90
2023-05-05T09:38:15.618Z,15.90
2023-05-05T09:40:53.803Z,16.00
2023-05-05T09:43:23.312Z,16.10
2023-05-05T09:45:51.216Z,16.30
2023-05-05T09:48:26.595Z,16.30
2023-05-05T09:50:55.696Z,16.50
2023-05-05T09:53:24.976Z,16.50
2023-05-05T09:55:54.456Z,16.50
2023-05-05T09:58:24.842Z,16.50
2023-05-05T10:00:53.596Z,16.50
2023-05-05T10:03:21.702Z,16.60
2023-05-05T10:05:52.135Z,16.70
2023-05-05T10:08:21.575Z,16.90
2023-05-05T10:10:54.830Z,16.90
2023-05-05T10:13:24.129Z,17.00
2023-05-05T10:15:54.459Z,17.00
2023-05-05T10:18:27.776Z,17.00
2023-05-05T10:20:59.945Z,17.00
2023-05-05T10:23:41.675Z,17.00
2023-05-05T10:26:14.074Z,16.90
2023-05-05T10:28:51.615Z,16.80
2023-05-05T10:31:46.150Z,16.80
2023-05-05T10:34:23.637Z,16.80
2023-05-05T10:36:52.123Z,16.90
2023-05-05T10:39:21.186Z,17.10
2023-05-05T10:41:49.803Z,17.50
2023-05-05T10:44:18.148Z,17.40
2023-05-05T10:46:46.707Z,17.60
2023-05-05T10:49:28.950Z,17.80
2023-05-05T10:52:15.415Z,17.90
2023-05-05T10:54:45.403Z,18.10
2023-05-05T10:57:16.654Z,18.30
2023-05-05T10:59:44.626Z,18.50
2023-05-05T11:02:19.946Z,18.50
2023-05-05T11:05:22.855Z,18.60
2023-05-05T11:07:52.001Z,18.80
2023-05-05T11:10:21.181Z,19.00
2023-05-05T11:12:55.279Z,18.90
2023-05-05T11:15:29.208Z,18.80
2023-05-05T11:17:58.814Z,18.70
2023-05-05T11:20:45.510Z,18.70
2023-05-05T11:23:16.021Z,18.70
2023-05-05T11:25:44.640Z,18.80
2023-05-05T11:28:19.370Z,19.00
2023-05-05T11:30:57.881Z,19.20
2023-05-05T11:33:38.499Z,19.60
2023-05-05T11:36:08.401Z,19.90
2023-05-05T11:39:03.839Z,20.20
2023-05-05T11:41:34.231Z,20.30
2023-05-05T11:44:19.200Z,20.40
2023-05-05T11:46:52.967Z,20.40
2023-05-05T11:49:46.750Z,20.60
2023-05-05T11:52:15.201Z,20.90
2023-05-05T11:54:50.735Z,21.00
2023-05-05T11:57:23.049Z,21.10
2023-05-05T11:59:57.987Z,21.30
2023-05-05T12:02:27.905Z,21.70
2023-05-05T12:04:56.636Z,21.90
2023-05-05T12:07:26.460Z,21.90
2023-05-05T12:09:56.939Z,22.10
2023-05-05T12:12:39.502Z,22.30
2023-05-05T12:15:09.229Z,22.50
2023-05-05T12:17:42.806Z,22.70
2023-05-05T12:20:12.147Z,22.80
2023-05-05T12:22:43.787Z,22.80
2023-05-05T12:27:39.389Z,23.30
2023-05-05T12:30:13.968Z,23.70
2023-05-05T12:32:41.724Z,23.90
2023-05-05T12:35:10.485Z,24.10
2023-05-05T12:37:38.654Z,24.00
2023-05-05T12:40:08.777Z,24.00
2023-05-05T12:42:40.117Z,24.00
2023-05-05T12:45:15.974Z,24.10
2023-05-05T12:47:44.854Z,24.00
2023-05-05T12:50:12.478Z,23.70
2023-05-05T12:52:43.089Z,23.50
2023-05-05T12:55:11.504Z,23.20
2023-05-05T12:57:39.496Z,23.20
2023-05-05T13:00:16.268Z,23.10
2023-05-05T13:02:44.071Z,22.80
2023-05-05T13:05:12.029Z,22.30
2023-05-05T13:07:53.594Z,22.30
2023-05-05T13:10:21.412Z,21.90
2023-05-05T13:12:48.946Z,21.60
2023-05-05T13:15:16.697Z,21.50
2023-05-05T13:17:44.245Z,21.40
2023-05-05T13:20:12.355Z,22.00
2023-05-05T13:22:40.530Z,22.10
2023-05-05T13:25:08.613Z,22.50
2023-05-05T13:27:37.884Z,22.90
2023-05-05T13:30:06.494Z,23.40
2023-05-05T13:32:34.240Z,23.80
2023-05-05T13:35:04.538Z,23.80
2023-05-05T13:37:32.461Z,24.40
2023-05-05T13:40:00.476Z,24.30
2023-05-05T13:42:31.304Z,24.80
2023-05-05T13:44:59.010Z,24.60
2023-05-05T13:49:54.462Z,24.00
2023-05-05T13:52:21.995Z,23.20
2023-05-05T13:54:49.714Z,22.40
2023-05-05T13:57:17.385Z,20.90
2023-05-05T13:59:45.013Z,20.80
2023-05-05T14:02:16.074Z,20.30
2023-05-05T14:04:43.733Z,19.90
2023-05-05T14:07:11.262Z,19.50
2023-05-05T14:09:38.974Z,19.30
2023-05-05T14:12:09.841Z,18.90
2023-05-05T14:14:37.758Z,18.80
2023-05-05T14:17:07.980Z,18.70
2023-05-05T14:19:37.063Z,18.50
2023-05-05T14:22:04.668Z,18.30
2023-05-05T14:24:37.515Z,17.90
2023-05-05T14:27:05.318Z,17.90
2023-05-05T14:29:33.163Z,17.50
2023-05-05T14:32:00.956Z,17.00
2023-05-05T14:34:28.876Z,16.70
2023-05-05T14:36:57.322Z,16.40
2023-05-05T14:39:25.064Z,16.20
2023-05-05T14:41:52.760Z,16.10
2023-05-05T14:44:20.412Z,16.10
2023-05-05T14:46:49.790Z,16.70
2023-05-05T14:49:18.775Z,16.60
2023-05-05T14:51:46.410Z,17.20
2023-05-05T14:54:26.902Z,17.20
2023-05-05T14:56:56.199Z,17.50
2023-05-05T14:59:23.789Z,17.50
2023-05-05T15:01:51.525Z,17.50
2023-05-05T15:04:19.289Z,17.40
2023-05-05T15:06:46.897Z,17.30
2023-05-05T15:09:14.435Z,17.10
2023-05-05T15:11:42.521Z,16.90
2023-05-05T15:14:10.056Z,17.40
2023-05-05T15:16:37.920Z,16.40
2023-05-05T15:19:08.440Z,16.30
2023-05-05T15:21:38.833Z,16.20
2023-05-05T15:24:09.752Z,16.20
2023-05-05T15:26:37.309Z,16.30
2023-05-05T15:29:04.818Z,15.60
2023-05-05T15:31:35.908Z,16.30
2023-05-05T15:34:03.575Z,16.20
2023-05-05T15:36:32.311Z,16.30
2023-05-05T15:39:00.013Z,16.20
2023-05-05T15:41:29.435Z,16.10
2023-05-05T15:43:57.596Z,16.10
2023-05-05T15:46:26.338Z,15.80
2023-05-05T15:48:53.995Z,16.10
2023-05-05T15:51:21.668Z,16.10
2023-05-05T15:53:49.242Z,16.10
2023-05-05T15:56:17.221Z,16.20
2023-05-05T15:58:45.138Z,16.20
2023-05-05T16:01:12.924Z,16.20
2023-05-05T16:03:40.643Z,16.20
2023-05-05T16:06:10.089Z,16.20
2023-05-05T16:08:38.464Z,16.20
2023-05-05T16:11:06.757Z,16.20
2023-05-05T16:13:34.657Z,16.20
2023-05-05T16:16:02.285Z,16.10
2023-05-05T16:18:30.080Z,16.20
2023-05-05T16:20:57.734Z,16.20
2023-05-05T16:23:25.708Z,16.10
2023-05-05T16:25:53.213Z,16.10
2023-05-05T16:28:20.905Z,16.10
2023-05-05T16:30:48.626Z,16.10
2023-05-05T16:33:16.266Z,16.20
2023-05-05T16:35:45.751Z,16.20
2023-05-05T16:38:14.237Z,16.30
2023-05-05T16:40:41.739Z,16.40
2023-05-05T16:43:09.366Z,16.50
2023-05-05T16:45:39.532Z,16.70
2023-05-05T16:48:09.051Z,16.80
2023-05-05T16:50:40.113Z,16.80
2023-05-05T16:53:07.759Z,17.10
2023-05-05T16:55:36.472Z,17.40
2023-05-05T16:58:04.963Z,17.40
2023-05-05T17:00:33.336Z,17.50
2023-05-05T17:03:01.278Z,17.50
2023-05-05T17:05:30.463Z,17.50
2023-05-05T17:07:59.292Z,17.50
2023-05-05T17:10:27.155Z,17.60
2023-05-05T17:12:54.819Z,17.60
2023-05-05T17:15:22.479Z,17.60
2023-05-05T17:17:50.244Z,17.60
2023-05-05T17:20:18.816Z,17.50
2023-05-05T17:25:14.528Z,17.30
2023-05-05T17:27:42.516Z,17.20
2023-05-05T17:30:10.596Z,17.50
2023-05-05T17:32:38.601Z,16.80
2023-05-05T17:35:07.128Z,16.70
2023-05-05T17:37:35.460Z,16.50
2023-05-05T17:40:09.448Z,16.40
2023-05-05T17:42:38.303Z,16.20
2023-05-05T17:45:09.789Z,16.20
2023-05-05T17:47:37.780Z,16.10
2023-05-05T17:50:07.676Z,16.10
2023-05-05T17:52:38.409Z,16.10
2023-05-05T17:55:07.913Z,16.10
2023-05-05T17:57:36.105Z,16.20
2023-05-05T18:00:05.733Z,16.10
2023-05-05T18:02:40.715Z,16.10
2023-05-05T18:05:10.214Z,16.20
2023-05-05T18:07:40.952Z,16.20
2023-05-05T18:10:10.687Z,16.20
2023-05-05T18:15:09.334Z,16.20
2023-05-05T18:17:37.545Z,16.20
2023-05-05T18:20:06.983Z,16.10
2023-05-05T18:22:35.932Z,16.10
2023-05-05T18:25:05.914Z,16.00
2023-05-05T18:27:36.090Z,16.00
2023-05-05T18:30:04.856Z,16.00
2023-05-05T18:32:34.380Z,15.90
2023-05-05T18:35:02.180Z,15.80
2023-05-05T18:37:30.029Z,15.80
2023-05-05T18:39:57.772Z,15.70
2023-05-05T18:42:25.854Z,15.60
2023-05-05T18:44:53.834Z,15.60
2023-05-05T18:47:21.866Z,15.60
2023-05-05T18:49:49.836Z,15.60
2023-05-05T18:52:17.503Z,15.50
2023-05-05T18:57:16.865Z,15.50
2023-05-05T18:59:44.552Z,15.50
2023-05-05T19:02:12.359Z,15.50
2023-05-05T19:04:41.660Z,15.40
2023-05-05T19:07:09.598Z,15.40
2023-05-05T19:09:38.162Z,15.30
2023-05-05T19:12:08.349Z,15.30
2023-05-05T19:14:39.346Z,15.20
2023-05-05T19:17:07.595Z,15.10
2023-05-05T19:19:35.552Z,15.10
2023-05-05T19:22:03.729Z,15.00
2023-05-05T19:26:59.698Z,14.90
2023-05-05T19:29:54.060Z,14.80
2023-05-05T19:32:22.023Z,14.80
2023-05-05T19:34:49.927Z,14.70
2023-05-05T19:37:17.608Z,14.60
2023-05-05T19:39:45.874Z,14.50
2023-05-05T19:42:14.470Z,14.50
2023-05-05T19:44:42.220Z,14.40
2023-05-05T19:47:11.230Z,14.40
2023-05-05T19:49:40.495Z,14.40
2023-05-05T19:52:08.343Z,14.30
2023-05-05T19:54:37.224Z,14.30
2023-05-05T19:57:08.050Z,14.30
2023-05-05T19:59:35.930Z,14.20
2023-05-05T20:02:03.539Z,14.20
2023-05-05T20:04:31.298Z,14.20
2023-05-05T20:06:59.622Z,14.20
2023-05-05T20:09:27.659Z,14.20
2023-05-05T20:11:58.725Z,14.20
2023-05-05T20:14:26.878Z,14.30
2023-05-05T20:16:54.757Z,14.20
2023-05-05T20:19:22.508Z,14.30
2023-05-05T20:21:50.656Z,14.30
2023-05-05T20:24:18.600Z,14.30
2023-05-05T20:26:46.167Z,14.20
2023-05-05T20:29:15.154Z,14.10
2023-05-05T20:31:42.773Z,14.10
2023-05-05T20:34:11.353Z,14.10
2023-05-05T20:36:39.138Z,14.00
2023-05-05T20:39:15.356Z,14.10
2023-05-05T20:41:43.204Z,14.00
2023-05-05T20:44:11.040Z,14.00
2023-05-05T20:46:42.303Z,14.00
2023-05-05T20:49:11.958Z,14.00
2023-05-05T20:51:40.744Z,14.00
2023-05-05T20:54:10.036Z,13.90
2023-05-05T20:56:37.801Z,13.90
2023-05-05T20:59:06.143Z,13.80
2023-05-05T21:01:34.639Z,13.90
2023-05-05T21:04:02.326Z,13.80
2023-05-05T21:06:30.627Z,13.80
2023-05-05T21:08:58.201Z,13.80
2023-05-05T21:11:28.538Z,13.70
2023-05-05T21:13:56.427Z,13.70
2023-05-05T21:16:24.011Z,13.80
2023-05-05T21:18:51.669Z,13.70
2023-05-05T21:21:19.364Z,13.60
2023-05-05T21:23:47.972Z,13.60
2023-05-05T21:26:16.139Z,13.60
2023-05-05T21:28:43.909Z,13.60
2023-05-05T21:31:21.616Z,13.50
2023-05-05T21:33:50.222Z,13.50
2023-05-05T21:36:19.266Z,13.50
2023-05-05T21:38:47.128Z,13.40
2023-05-05T21:41:14.907Z,13.40
2023-05-05T21:43:42.684Z,13.40
2023-05-05T21:46:10.329Z,13.30
2023-05-05T21:48:39.132Z,13.30
2023-05-05T21:51:09.787Z,13.20
2023-05-05T21:53:40.261Z,13.20
2023-05-05T21:56:10.884Z,13.10
2023-05-05T21:58:38.585Z,13.10
2023-05-05T22:01:08.721Z,13.20
2023-05-05T22:03:36.687Z,13.20
2023-05-05T22:06:04.472Z,13.10
2023-05-05T22:10:59.995Z,13.10
2023-05-05T22:13:27.716Z,13.10
2023-05-05T22:15:55.413Z,13.10
2023-05-05T22:18:23.057Z,13.10
2023-05-05T22:20:51.462Z,13.10
2023-05-05T22:23:19.955Z,13.10
2023-05-05T22:25:47.809Z,13.10
2023-05-05T22:28:15.468Z,13.10
2023-05-05T22:30:43.307Z,13.10
2023-05-05T22:33:11.200Z,13.10
2023-05-05T22:35:38.779Z,13.00
2023-05-05T22:38:07.102Z,13.00
2023-05-05T22:40:36.971Z,13.00
2023-05-05T22:43:06.982Z,12.90
2023-05-05T22:45:34.776Z,13.00
2023-05-05T22:48:05.918Z,12.90
2023-05-05T22:50:34.585Z,12.90
2023-05-05T22:53:02.272Z,13.00
2023-05-05T22:55:30.025Z,12.90
2023-05-05T22:57:57.560Z,13.00
2023-05-05T23:00:25.238Z,13.00
2023-05-05T23:02:53.786Z,13.00
2023-05-05T23:05:22.482Z,13.00
2023-05-05T23:07:51.073Z,13.00
2023-05-05T23:10:19.801Z,13.00
2023-05-05T23:12:47.968Z,13.10
2023-05-05T23:15:19.649Z,13.10
2023-05-05T23:17:48.449Z,13.10
2023-05-05T23:20:16.754Z,13.10
2023-05-05T23:22:45.111Z,13.10
2023-05-05T23:25:16.049Z,13.10
2023-05-05T23:27:46.014Z,13.10
2023-05-05T23:30:14.778Z,13.10
2023-05-05T23:32:44.940Z,13.10
2023-05-05T23:35:13.003Z,13.10
2023-05-05T23:37:40.798Z,13.10
2023-05-05T23:40:09.336Z,13.10
2023-05-05T23:42:37.651Z,13.00
2023-05-05T23:45:07.225Z,13.80
2023-05-05T23:47:35.072Z,13.00
2023-05-05T23:50:07.771Z,12.90
2023-05-05T23:52:37.368Z,12.90
2023-05-05T23:55:08.757Z,12.70
2023-05-05T23:57:37.407Z,12.70
